sensor_id;sensor_type;location;lat;lon;timestamp;P1;durP1;ratioP1;P2;durP2;ratioP2
673;SDS011;319;48.764;9.174;2022-11-20T00:01:22;1.20;;;1.20;;
673;SDS011;319;48.764;9.174;2022-11-20T00:03:50;1.30;;;1.30;;
673;SDS011;319;48.764;9.174;2022-11-20T00:06:18;1.20;;;1.20;;
673;SDS011;319;48.764;9.174;2022-11-20T00:08:47;1.30;;;1.30;;
673;SDS011;319;48.764;9.174;2022-11-20T00:11:15;1.20;;;1.20;;
673;SDS011;319;48.764;9.174;2022-11-20T00:13:43;1.23;;;1.23;;
673;SDS011;319;48.764;9.174;2022-11-20T00:16:11;1.30;;;1.30;;
673;SDS011;319;48.764;9.174;2022-11-20T00:18:40;1.30;;;1.30;;
673;SDS011;319;48.764;9.174;2022-11-20T00:21:10;1.30;;;1.30;;
673;SDS011;319;48.764;9.174;2022-11-20T00:23:38;1.20;;;1.20;;
673;SDS011;319;48.764;9.174;2022-11-20T00:26:05;1.20;;;1.20;;
673;SDS011;319;48.764;9.174;2022-11-20T00:28:33;1.20;;;1.20;;
673;SDS011;319;48.764;9.174;2022-11-20T00:31:01;1.23;;;1.23;;
673;SDS011;319;48.764;9.174;2022-11-20T00:33:28;1.20;;;1.20;;
673;SDS011;319;48.764;9.174;2022-11-20T00:36:00;1.20;;;1.20;;
673;SDS011;319;48.764;9.174;2022-11-20T00:38:27;1.20;;;1.20;;
673;SDS011;319;48.764;9.174;2022-11-20T00:40:54;1.20;;;1.20;;
673;SDS011;319;48.764;9.174;2022-11-20T00:43:22;1.20;;;1.20;;
673;SDS011;319;48.764;9.174;2022-11-20T00:45:49;1.20;;;1.20;;
673;SDS011;319;48.764;9.174;2022-11-20T00:48:16;1.23;;;1.23;;
673;SDS011;319;48.764;9.174;2022-11-20T00:50:42;1.20;;;1.20;;
673;SDS011;319;48.764;9.174;2022-11-20T00:53:10;2.23;;;2.13;;
673;SDS011;319;48.764;9.174;2022-11-20T00:55:37;1.63;;;1.63;;
673;SDS011;319;48.764;9.174;2022-11-20T00:58:04;1.20;;;1.20;;
673;SDS011;319;48.764;9.174;2022-11-20T01:00:31;1.30;;;1.30;;
673;SDS011;319;48.764;9.174;2022-11-20T01:02:57;1.30;;;1.30;;
673;SDS011;319;48.764;9.174;2022-11-20T01:05:24;1.10;;;1.10;;
673;SDS011;319;48.764;9.174;2022-11-20T01:07:51;1.30;;;1.30;;
673;SDS011;319;48.764;9.174;2022-11-20T01:10:19;1.20;;;1.20;;
673;SDS011;319;48.764;9.174;2022-11-20T01:12:46;1.20;;;1.20;;
673;SDS011;319;48.764;9.174;2022-11-20T01:15:33;1.30;;;1.30;;
673;SDS011;319;48.764;9.174;2022-11-20T01:18:01;1.30;;;1.30;;
673;SDS011;319;48.764;9.174;2022-11-20T01:20:28;1.30;;;1.30;;
673;SDS011;319;48.764;9.174;2022-11-20T01:22:55;1.27;;;1.27;;
673;SDS011;319;48.764;9.174;2022-11-20T01:25:23;1.30;;;1.30;;
673;SDS011;319;48.764;9.174;2022-11-20T01:27:49;1.30;;;1.30;;
673;SDS011;319;48.764;9.174;2022-11-20T01:30:16;1.20;;;1.20;;
673;SDS011;319;48.764;9.174;2022-11-20T01:32:43;1.30;;;1.30;;
673;SDS011;319;48.764;9.174;2022-11-20T01:35:10;1.30;;;1.30;;
673;SDS011;319;48.764;9.174;2022-11-20T01:37:36;1.20;;;1.20;;
673;SDS011;319;48.764;9.174;2022-11-20T01:40:04;1.20;;;1.20;;
673;SDS011;319;48.764;9.174;2022-11-20T01:42:32;1.30;;;1.30;;
673;SDS011;319;48.764;9.174;2022-11-20T01:48:25;1.60;;;1.60;;
673;SDS011;319;48.764;9.174;2022-11-20T01:50:55;1.53;;;1.53;;
673;SDS011;319;48.764;9.174;2022-11-20T01:53:24;1.90;;;1.90;;
673;SDS011;319;48.764;9.174;2022-11-20T01:55:54;2.07;;;2.07;;
673;SDS011;319;48.764;9.174;2022-11-20T01:58:24;2.10;;;2.10;;
673;SDS011;319;48.764;9.174;2022-11-20T02:00:53;2.20;;;2.20;;
673;SDS011;319;48.764;9.174;2022-11-20T02:03:20;1.70;;;1.70;;
673;SDS011;319;48.764;9.174;2022-11-20T02:05:49;1.90;;;1.90;;
673;SDS011;319;48.764;9.174;2022-11-20T02:08:19;2.00;;;2.00;;
673;SDS011;319;48.764;9.174;2022-11-20T02:10:47;2.10;;;2.10;;
673;SDS011;319;48.764;9.174;2022-11-20T02:13:14;2.00;;;2.00;;
673;SDS011;319;48.764;9.174;2022-11-20T02:16:00;1.60;;;1.60;;
673;SDS011;319;48.764;9.174;2022-11-20T02:18:28;1.20;;;1.20;;
673;SDS011;319;48.764;9.174;2022-11-20T02:20:57;1.20;;;1.20;;
673;SDS011;319;48.764;9.174;2022-11-20T02:23:30;1.20;;;1.20;;
673;SDS011;319;48.764;9.174;2022-11-20T02:26:04;1.20;;;1.20;;
673;SDS011;319;48.764;9.174;2022-11-20T02:28:35;1.20;;;1.20;;
673;SDS011;319;48.764;9.174;2022-11-20T02:31:01;1.40;;;1.40;;
673;SDS011;319;48.764;9.174;2022-11-20T02:33:28;1.20;;;1.20;;
673;SDS011;319;48.764;9.174;2022-11-20T02:35:55;1.20;;;1.20;;
673;SDS011;319;48.764;9.174;2022-11-20T02:38:22;1.30;;;1.30;;
673;SDS011;319;48.764;9.174;2022-11-20T02:40:48;1.30;;;1.30;;
673;SDS011;319;48.764;9.174;2022-11-20T02:43:16;1.30;;;1.30;;
673;SDS011;319;48.764;9.174;2022-11-20T02:45:43;1.20;;;1.20;;
673;SDS011;319;48.764;9.174;2022-11-20T02:48:10;1.20;;;1.20;;
673;SDS011;319;48.764;9.174;2022-11-20T02:50:37;1.20;;;1.20;;
673;SDS011;319;48.764;9.174;2022-11-20T02:53:05;1.20;;;1.20;;
673;SDS011;319;48.764;9.174;2022-11-20T02:55:32;1.20;;;1.20;;
673;SDS011;319;48.764;9.174;2022-11-20T02:57:59;1.20;;;1.20;;
673;SDS011;319;48.764;9.174;2022-11-20T03:00:27;1.10;;;1.10;;
673;SDS011;319;48.764;9.174;2022-11-20T03:02:54;1.10;;;1.10;;
673;SDS011;319;48.764;9.174;2022-11-20T03:05:21;1.20;;;1.20;;
673;SDS011;319;48.764;9.174;2022-11-20T03:07:48;1.20;;;1.20;;
673;SDS011;319;48.764;9.174;2022-11-20T03:10:15;1.20;;;1.20;;
673;SDS011;319;48.764;9.174;2022-11-20T03:12:41;1.20;;;1.20;;
673;SDS011;319;48.764;9.174;2022-11-20T03:15:09;1.30;;;1.30;;
673;SDS011;319;48.764;9.174;2022-11-20T03:17:37;1.20;;;1.20;;
673;SDS011;319;48.764;9.174;2022-11-20T03:20:05;1.20;;;1.20;;
673;SDS011;319;48.764;9.174;2022-11-20T03:22:32;1.20;;;1.20;;
673;SDS011;319;48.764;9.174;2022-11-20T03:24:59;1.20;;;1.20;;
673;SDS011;319;48.764;9.174;2022-11-20T03:27:26;1.30;;;1.30;;
673;SDS011;319;48.764;9.174;2022-11-20T03:29:52;1.30;;;1.30;;
673;SDS011;319;48.764;9.174;2022-11-20T03:32:19;1.30;;;1.30;;
673;SDS011;319;48.764;9.174;2022-11-20T03:34:47;1.20;;;1.20;;
673;SDS011;319;48.764;9.174;2022-11-20T03:37:14;4.10;;;4.00;;
673;SDS011;319;48.764;9.174;2022-11-20T03:39:41;6.50;;;6.40;;
673;SDS011;319;48.764;9.174;2022-11-20T03:42:08;4.90;;;4.80;;
673;SDS011;319;48.764;9.174;2022-11-20T03:44:56;6.30;;;6.20;;
673;SDS011;319;48.764;9.174;2022-11-20T03:47:23;5.50;;;5.40;;
673;SDS011;319;48.764;9.174;2022-11-20T03:49:51;6.67;;;6.50;;
673;SDS011;319;48.764;9.174;2022-11-20T03:52:18;4.47;;;4.37;;
673;SDS011;319;48.764;9.174;2022-11-20T03:54:45;1.40;;;1.40;;
673;SDS011;319;48.764;9.174;2022-11-20T03:57:12;1.30;;;1.30;;
673;SDS011;319;48.764;9.174;2022-11-20T03:59:38;1.30;;;1.30;;
673;SDS011;319;48.764;9.174;2022-11-20T04:02:05;6.87;;;6.67;;
673;SDS011;319;48.764;9.174;2022-11-20T04:04:32;5.20;;;5.10;;
673;SDS011;319;48.764;9.174;2022-11-20T04:07:00;1.30;;;1.30;;
673;SDS011;319;48.764;9.174;2022-11-20T04:09:27;6.50;;;6.40;;
673;SDS011;319;48.764;9.174;2022-11-20T04:11:53;4.50;;;4.40;;
673;SDS011;319;48.764;9.174;2022-11-20T04:14:20;2.70;;;2.70;;
673;SDS011;319;48.764;9.174;2022-11-20T04:16:47;1.27;;;1.27;;
673;SDS011;319;48.764;9.174;2022-11-20T04:19:14;1.30;;;1.30;;
673;SDS011;319;48.764;9.174;2022-11-20T04:21:42;1.40;;;1.40;;
673;SDS011;319;48.764;9.174;2022-11-20T04:24:11;1.30;;;1.30;;
673;SDS011;319;48.764;9.174;2022-11-20T04:26:40;1.30;;;1.30;;
673;SDS011;319;48.764;9.174;2022-11-20T04:29:10;1.30;;;1.30;;
673;SDS011;319;48.764;9.174;2022-11-20T04:31:37;1.40;;;1.40;;
673;SDS011;319;48.764;9.174;2022-11-20T04:34:05;1.50;;;1.50;;
673;SDS011;319;48.764;9.174;2022-11-20T04:36:32;1.50;;;1.50;;
673;SDS011;319;48.764;9.174;2022-11-20T04:39:00;1.40;;;1.40;;
673;SDS011;319;48.764;9.174;2022-11-20T04:41:30;1.40;;;1.40;;
673;SDS011;319;48.764;9.174;2022-11-20T04:43:58;1.40;;;1.40;;
673;SDS011;319;48.764;9.174;2022-11-20T04:46:28;1.50;;;1.50;;
673;SDS011;319;48.764;9.174;2022-11-20T04:48:55;1.30;;;1.30;;
673;SDS011;319;48.764;9.174;2022-11-20T04:51:22;1.50;;;1.50;;
673;SDS011;319;48.764;9.174;2022-11-20T04:53:49;1.40;;;1.40;;
673;SDS011;319;48.764;9.174;2022-11-20T04:56:16;1.30;;;1.30;;
673;SDS011;319;48.764;9.174;2022-11-20T04:58:45;1.37;;;1.37;;
673;SDS011;319;48.764;9.174;2022-11-20T05:01:12;1.40;;;1.40;;
673;SDS011;319;48.764;9.174;2022-11-20T05:03:40;1.50;;;1.50;;
673;SDS011;319;48.764;9.174;2022-11-20T05:06:08;1.40;;;1.40;;
673;SDS011;319;48.764;9.174;2022-11-20T05:08:35;1.40;;;1.40;;
673;SDS011;319;48.764;9.174;2022-11-20T05:11:03;1.43;;;1.43;;
673;SDS011;319;48.764;9.174;2022-11-20T05:13:31;1.40;;;1.40;;
673;SDS011;319;48.764;9.174;2022-11-20T05:16:02;1.50;;;1.50;;
673;SDS011;319;48.764;9.174;2022-11-20T05:18:30;1.40;;;1.40;;
673;SDS011;319;48.764;9.174;2022-11-20T05:20:59;1.50;;;1.50;;
673;SDS011;319;48.764;9.174;2022-11-20T05:23:27;1.40;;;1.40;;
673;SDS011;319;48.764;9.174;2022-11-20T05:25:55;1.40;;;1.40;;
673;SDS011;319;48.764;9.174;2022-11-20T05:28:24;1.40;;;1.40;;
673;SDS011;319;48.764;9.174;2022-11-20T05:30:51;1.40;;;1.40;;
673;SDS011;319;48.764;9.174;2022-11-20T05:33:19;1.40;;;1.40;;
673;SDS011;319;48.764;9.174;2022-11-20T05:35:46;1.50;;;1.50;;
673;SDS011;319;48.764;9.174;2022-11-20T05:38:14;1.40;;;1.40;;
673;SDS011;319;48.764;9.174;2022-11-20T05:40:41;1.40;;;1.40;;
673;SDS011;319;48.764;9.174;2022-11-20T05:43:07;1.30;;;1.30;;
673;SDS011;319;48.764;9.174;2022-11-20T05:45:34;1.50;;;1.50;;
673;SDS011;319;48.764;9.174;2022-11-20T05:48:01;1.50;;;1.50;;
673;SDS011;319;48.764;9.174;2022-11-20T05:50:29;1.50;;;1.50;;
673;SDS011;319;48.764;9.174;2022-11-20T05:52:57;1.30;;;1.30;;
673;SDS011;319;48.764;9.174;2022-11-20T05:55:25;1.50;;;1.50;;
673;SDS011;319;48.764;9.174;2022-11-20T05:57:52;1.30;;;1.30;;
673;SDS011;319;48.764;9.174;2022-11-20T06:00:19;1.60;;;1.60;;
673;SDS011;319;48.764;9.174;2022-11-20T06:02:46;1.40;;;1.40;;
673;SDS011;319;48.764;9.174;2022-11-20T06:05:13;1.40;;;1.40;;
673;SDS011;319;48.764;9.174;2022-11-20T06:07:41;1.50;;;1.50;;
673;SDS011;319;48.764;9.174;2022-11-20T06:10:08;1.47;;;1.47;;
673;SDS011;319;48.764;9.174;2022-11-20T06:12:35;1.43;;;1.43;;
673;SDS011;319;48.764;9.174;2022-11-20T06:15:02;1.40;;;1.40;;
673;SDS011;319;48.764;9.174;2022-11-20T06:17:30;1.50;;;1.50;;
673;SDS011;319;48.764;9.174;2022-11-20T06:19:56;1.50;;;1.50;;
673;SDS011;319;48.764;9.174;2022-11-20T06:22:23;1.50;;;1.50;;
673;SDS011;319;48.764;9.174;2022-11-20T06:24:51;1.50;;;1.50;;
673;SDS011;319;48.764;9.174;2022-11-20T06:27:18;1.40;;;1.40;;
673;SDS011;319;48.764;9.174;2022-11-20T06:29:45;1.40;;;1.40;;
673;SDS011;319;48.764;9.174;2022-11-20T06:32:11;1.30;;;1.30;;
673;SDS011;319;48.764;9.174;2022-11-20T06:34:38;1.40;;;1.40;;
673;SDS011;319;48.764;9.174;2022-11-20T06:37:05;1.50;;;1.50;;
673;SDS011;319;48.764;9.174;2022-11-20T06:39:32;1.30;;;1.30;;
673;SDS011;319;48.764;9.174;2022-11-20T06:42:00;1.40;;;1.40;;
673;SDS011;319;48.764;9.174;2022-11-20T06:44:27;1.50;;;1.50;;
673;SDS011;319;48.764;9.174;2022-11-20T06:46:54;1.40;;;1.40;;
673;SDS011;319;48.764;9.174;2022-11-20T06:49:20;1.40;;;1.40;;
673;SDS011;319;48.764;9.174;2022-11-20T06:51:47;1.30;;;1.30;;
673;SDS011;319;48.764;9.174;2022-11-20T06:54:14;1.30;;;1.30;;
673;SDS011;319;48.764;9.174;2022-11-20T06:56:40;1.40;;;1.40;;
673;SDS011;319;48.764;9.174;2022-11-20T06:59:09;1.40;;;1.40;;
673;SDS011;319;48.764;9.174;2022-11-20T07:01:36;1.30;;;1.30;;
673;SDS011;319;48.764;9.174;2022-11-20T07:04:03;1.30;;;1.30;;
673;SDS011;319;48.764;9.174;2022-11-20T07:06:30;1.50;;;1.50;;
673;SDS011;319;48.764;9.174;2022-11-20T07:08:57;1.40;;;1.40;;
673;SDS011;319;48.764;9.174;2022-11-20T07:11:23;1.30;;;1.30;;
673;SDS011;319;48.764;9.174;2022-11-20T07:13:50;1.27;;;1.27;;
673;SDS011;319;48.764;9.174;2022-11-20T07:16:19;1.40;;;1.40;;
673;SDS011;319;48.764;9.174;2022-11-20T07:18:46;1.50;;;1.50;;
673;SDS011;319;48.764;9.174;2022-11-20T07:21:13;1.40;;;1.40;;
673;SDS011;319;48.764;9.174;2022-11-20T07:23:40;1.50;;;1.50;;
673;SDS011;319;48.764;9.174;2022-11-20T07:26:07;1.47;;;1.47;;
673;SDS011;319;48.764;9.174;2022-11-20T07:28:37;1.50;;;1.50;;
673;SDS011;319;48.764;9.174;2022-11-20T07:31:04;1.40;;;1.40;;
673;SDS011;319;48.764;9.174;2022-11-20T07:33:33;1.47;;;1.47;;
673;SDS011;319;48.764;9.174;2022-11-20T07:36:00;1.30;;;1.30;;
673;SDS011;319;48.764;9.174;2022-11-20T07:38:27;1.30;;;1.30;;
673;SDS011;319;48.764;9.174;2022-11-20T07:40:55;1.30;;;1.30;;
673;SDS011;319;48.764;9.174;2022-11-20T07:43:22;1.30;;;1.30;;
673;SDS011;319;48.764;9.174;2022-11-20T07:45:50;1.30;;;1.30;;
673;SDS011;319;48.764;9.174;2022-11-20T07:48:20;1.30;;;1.30;;
673;SDS011;319;48.764;9.174;2022-11-20T07:50:48;1.40;;;1.40;;
673;SDS011;319;48.764;9.174;2022-11-20T07:53:14;1.40;;;1.40;;
673;SDS011;319;48.764;9.174;2022-11-20T07:55:45;1.33;;;1.33;;
673;SDS011;319;48.764;9.174;2022-11-20T07:58:12;1.37;;;1.37;;
673;SDS011;319;48.764;9.174;2022-11-20T08:00:39;1.40;;;1.40;;
673;SDS011;319;48.764;9.174;2022-11-20T08:03:06;1.30;;;1.30;;
673;SDS011;319;48.764;9.174;2022-11-20T08:05:33;1.40;;;1.40;;
673;SDS011;319;48.764;9.174;2022-11-20T08:08:01;1.30;;;1.30;;
673;SDS011;319;48.764;9.174;2022-11-20T08:10:29;1.30;;;1.30;;
673;SDS011;319;48.764;9.174;2022-11-20T08:12:55;1.30;;;1.30;;
673;SDS011;319;48.764;9.174;2022-11-20T08:15:40;1.50;;;1.50;;
673;SDS011;319;48.764;9.174;2022-11-20T08:18:08;1.30;;;1.30;;
673;SDS011;319;48.764;9.174;2022-11-20T08:20:36;1.30;;;1.30;;
673;SDS011;319;48.764;9.174;2022-11-20T08:23:07;1.30;;;1.30;;
673;SDS011;319;48.764;9.174;2022-11-20T08:25:34;1.20;;;1.20;;
673;SDS011;319;48.764;9.174;2022-11-20T08:28:05;1.30;;;1.30;;
673;SDS011;319;48.764;9.174;2022-11-20T08:30:34;1.30;;;1.30;;
673;SDS011;319;48.764;9.174;2022-11-20T08:33:05;1.30;;;1.30;;
673;SDS011;319;48.764;9.174;2022-11-20T08:35:39;1.30;;;1.30;;
673;SDS011;319;48.764;9.174;2022-11-20T08:38:09;1.30;;;1.30;;
673;SDS011;319;48.764;9.174;2022-11-20T08:40:36;1.40;;;1.40;;
673;SDS011;319;48.764;9.174;2022-11-20T08:43:04;1.30;;;1.30;;
673;SDS011;319;48.764;9.174;2022-11-20T08:45:32;1.40;;;1.40;;
673;SDS011;319;48.764;9.174;2022-11-20T08:47:59;1.40;;;1.40;;
673;SDS011;319;48.764;9.174;2022-11-20T08:50:27;1.30;;;1.30;;
673;SDS011;319;48.764;9.174;2022-11-20T08:53:01;1.30;;;1.30;;
673;SDS011;319;48.764;9.174;2022-11-20T08:55:30;1.30;;;1.30;;
673;SDS011;319;48.764;9.174;2022-11-20T08:57:57;1.30;;;1.30;;
673;SDS011;319;48.764;9.174;2022-11-20T09:00:24;1.23;;;1.23;;
673;SDS011;319;48.764;9.174;2022-11-20T09:02:51;1.20;;;1.20;;
673;SDS011;319;48.764;9.174;2022-11-20T09:05:18;1.20;;;1.20;;
673;SDS011;319;48.764;9.174;2022-11-20T09:07:45;3.90;;;3.73;;
673;SDS011;319;48.764;9.174;2022-11-20T09:10:12;1.10;;;1.10;;
673;SDS011;319;48.764;9.174;2022-11-20T09:12:41;1.20;;;1.20;;
673;SDS011;319;48.764;9.174;2022-11-20T09:15:08;1.20;;;1.20;;
673;SDS011;319;48.764;9.174;2022-11-20T09:17:36;1.20;;;1.20;;
673;SDS011;319;48.764;9.174;2022-11-20T09:20:03;1.20;;;1.20;;
673;SDS011;319;48.764;9.174;2022-11-20T09:22:31;1.10;;;1.10;;
673;SDS011;319;48.764;9.174;2022-11-20T09:24:58;1.20;;;1.20;;
673;SDS011;319;48.764;9.174;2022-11-20T09:27:25;6.00;;;5.90;;
673;SDS011;319;48.764;9.174;2022-11-20T09:29:55;3.80;;;3.70;;
673;SDS011;319;48.764;9.174;2022-11-20T09:32:22;3.20;;;3.10;;
673;SDS011;319;48.764;9.174;2022-11-20T09:34:49;4.40;;;4.30;;
673;SDS011;319;48.764;9.174;2022-11-20T09:37:16;3.90;;;3.80;;
673;SDS011;319;48.764;9.174;2022-11-20T09:39:43;3.30;;;3.20;;
673;SDS011;319;48.764;9.174;2022-11-20T09:42:17;3.20;;;3.10;;
673;SDS011;319;48.764;9.174;2022-11-20T09:45:03;3.20;;;3.10;;
673;SDS011;319;48.764;9.174;2022-11-20T09:47:45;3.70;;;3.60;;
673;SDS011;319;48.764;9.174;2022-11-20T09:50:31;3.90;;;3.80;;
673;SDS011;319;48.764;9.174;2022-11-20T09:53:08;3.53;;;3.43;;
673;SDS011;319;48.764;9.174;2022-11-20T09:55:41;3.70;;;3.60;;
673;SDS011;319;48.764;9.174;2022-11-20T09:58:12;3.40;;;3.30;;
673;SDS011;319;48.764;9.174;2022-11-20T10:00:50;3.57;;;3.47;;
673;SDS011;319;48.764;9.174;2022-11-20T10:03:33;2.67;;;2.67;;
673;SDS011;319;48.764;9.174;2022-11-20T10:06:07;3.97;;;3.87;;
673;SDS011;319;48.764;9.174;2022-11-20T10:08:42;4.40;;;4.30;;
673;SDS011;319;48.764;9.174;2022-11-20T10:11:15;3.20;;;3.10;;
673;SDS011;319;48.764;9.174;2022-11-20T10:13:49;3.50;;;3.40;;
673;SDS011;319;48.764;9.174;2022-11-20T10:16:29;3.93;;;3.83;;
673;SDS011;319;48.764;9.174;2022-11-20T10:32:15;4.70;;;4.60;;
673;SDS011;319;48.764;9.174;2022-11-20T10:34:46;5.00;;;4.90;;
673;SDS011;319;48.764;9.174;2022-11-20T10:37:18;5.20;;;5.10;;
673;SDS011;319;48.764;9.174;2022-11-20T10:39:50;5.10;;;5.00;;
673;SDS011;319;48.764;9.174;2022-11-20T10:42:24;3.90;;;3.80;;
673;SDS011;319;48.764;9.174;2022-11-20T10:44:58;4.27;;;4.17;;
673;SDS011;319;48.764;9.174;2022-11-20T10:47:38;5.03;;;4.93;;
673;SDS011;319;48.764;9.174;2022-11-20T10:50:08;4.77;;;4.67;;
673;SDS011;319;48.764;9.174;2022-11-20T10:52:40;4.50;;;4.40;;
673;SDS011;319;48.764;9.174;2022-11-20T10:55:18;3.63;;;3.53;;
673;SDS011;319;48.764;9.174;2022-11-20T10:57:57;4.70;;;4.60;;
673;SDS011;319;48.764;9.174;2022-11-20T11:00:32;4.63;;;4.53;;
673;SDS011;319;48.764;9.174;2022-11-20T11:03:00;3.70;;;3.60;;
673;SDS011;319;48.764;9.174;2022-11-20T11:05:38;3.40;;;3.30;;
673;SDS011;319;48.764;9.174;2022-11-20T11:08:09;4.27;;;4.17;;
673;SDS011;319;48.764;9.174;2022-11-20T11:10:39;4.40;;;4.30;;
673;SDS011;319;48.764;9.174;2022-11-20T11:13:18;3.70;;;3.60;;
673;SDS011;319;48.764;9.174;2022-11-20T11:15:46;4.30;;;4.20;;
673;SDS011;319;48.764;9.174;2022-11-20T11:18:23;3.80;;;3.70;;
673;SDS011;319;48.764;9.174;2022-11-20T11:20:51;4.90;;;4.80;;
673;SDS011;319;48.764;9.174;2022-11-20T11:23:28;4.00;;;3.90;;
673;SDS011;319;48.764;9.174;2022-11-20T11:25:58;4.80;;;4.70;;
673;SDS011;319;48.764;9.174;2022-11-20T11:28:26;4.40;;;4.30;;
673;SDS011;319;48.764;9.174;2022-11-20T11:33:26;4.50;;;4.40;;
673;SDS011;319;48.764;9.174;2022-11-20T11:35:55;5.43;;;5.33;;
673;SDS011;319;48.764;9.174;2022-11-20T11:38:27;5.60;;;5.50;;
673;SDS011;319;48.764;9.174;2022-11-20T11:40:57;5.40;;;5.30;;
673;SDS011;319;48.764;9.174;2022-11-20T11:43:25;3.80;;;3.70;;
673;SDS011;319;48.764;9.174;2022-11-20T11:46:21;5.30;;;5.20;;
673;SDS011;319;48.764;9.174;2022-11-20T11:48:57;3.90;;;3.80;;
673;SDS011;319;48.764;9.174;2022-11-20T11:51:26;5.00;;;4.90;;
673;SDS011;319;48.764;9.174;2022-11-20T11:54:00;5.07;;;4.97;;
673;SDS011;319;48.764;9.174;2022-11-20T11:56:31;5.10;;;5.00;;
673;SDS011;319;48.764;9.174;2022-11-20T11:59:04;5.30;;;5.20;;
673;SDS011;319;48.764;9.174;2022-11-20T12:01:37;4.50;;;4.40;;
673;SDS011;319;48.764;9.174;2022-11-20T12:04:13;3.77;;;3.67;;
673;SDS011;319;48.764;9.174;2022-11-20T12:06:46;4.83;;;4.73;;
673;SDS011;319;48.764;9.174;2022-11-20T12:09:17;4.90;;;4.80;;
673;SDS011;319;48.764;9.174;2022-11-20T12:11:46;4.90;;;4.80;;
673;SDS011;319;48.764;9.174;2022-11-20T12:14:21;5.00;;;4.90;;
673;SDS011;319;48.764;9.174;2022-11-20T12:16:54;5.13;;;5.03;;
673;SDS011;319;48.764;9.174;2022-11-20T12:19:23;4.40;;;4.30;;
673;SDS011;319;48.764;9.174;2022-11-20T12:21:54;4.40;;;4.30;;
673;SDS011;319;48.764;9.174;2022-11-20T12:24:34;3.90;;;3.80;;
673;SDS011;319;48.764;9.174;2022-11-20T12:27:23;4.80;;;4.70;;
673;SDS011;319;48.764;9.174;2022-11-20T12:30:07;2.07;;;2.07;;
673;SDS011;319;48.764;9.174;2022-11-20T12:32:39;1.60;;;1.60;;
673;SDS011;319;48.764;9.174;2022-11-20T12:35:23;1.10;;;1.10;;
673;SDS011;319;48.764;9.174;2022-11-20T12:38:13;1.30;;;1.30;;
673;SDS011;319;48.764;9.174;2022-11-20T12:40:56;2.60;;;2.60;;
673;SDS011;319;48.764;9.174;2022-11-20T12:43:33;3.30;;;3.20;;
673;SDS011;319;48.764;9.174;2022-11-20T12:46:27;3.20;;;3.10;;
673;SDS011;319;48.764;9.174;2022-11-20T12:51:59;2.70;;;2.70;;
673;SDS011;319;48.764;9.174;2022-11-20T12:54:59;2.40;;;2.40;;
673;SDS011;319;48.764;9.174;2022-11-20T12:57:43;2.20;;;2.20;;
673;SDS011;319;48.764;9.174;2022-11-20T13:00:15;2.00;;;2.00;;
673;SDS011;319;48.764;9.174;2022-11-20T13:02:50;2.07;;;2.07;;
673;SDS011;319;48.764;9.174;2022-11-20T13:05:35;2.00;;;2.00;;
673;SDS011;319;48.764;9.174;2022-11-20T13:08:08;1.70;;;1.70;;
673;SDS011;319;48.764;9.174;2022-11-20T13:10:43;1.27;;;1.27;;
673;SDS011;319;48.764;9.174;2022-11-20T13:13:16;1.10;;;1.10;;
673;SDS011;319;48.764;9.174;2022-11-20T13:15:50;1.20;;;1.20;;
673;SDS011;319;48.764;9.174;2022-11-20T13:18:22;1.20;;;1.20;;
673;SDS011;319;48.764;9.174;2022-11-20T13:20:49;1.20;;;1.20;;
673;SDS011;319;48.764;9.174;2022-11-20T13:23:24;1.20;;;1.20;;
673;SDS011;319;48.764;9.174;2022-11-20T13:26:02;1.30;;;1.30;;
673;SDS011;319;48.764;9.174;2022-11-20T13:28:31;1.20;;;1.20;;
673;SDS011;319;48.764;9.174;2022-11-20T13:30:58;1.30;;;1.30;;
673;SDS011;319;48.764;9.174;2022-11-20T13:33:29;1.20;;;1.20;;
673;SDS011;319;48.764;9.174;2022-11-20T13:35:58;1.40;;;1.40;;
673;SDS011;319;48.764;9.174;2022-11-20T13:38:28;1.20;;;1.20;;
673;SDS011;319;48.764;9.174;2022-11-20T13:41:07;1.20;;;1.20;;
673;SDS011;319;48.764;9.174;2022-11-20T13:43:48;1.30;;;1.30;;
673;SDS011;319;48.764;9.174;2022-11-20T13:46:15;1.30;;;1.30;;
673;SDS011;319;48.764;9.174;2022-11-20T13:48:45;1.30;;;1.30;;
673;SDS011;319;48.764;9.174;2022-11-20T13:51:15;1.30;;;1.30;;
673;SDS011;319;48.764;9.174;2022-11-20T13:54:02;1.60;;;1.60;;
673;SDS011;319;48.764;9.174;2022-11-20T13:56:43;1.30;;;1.30;;
673;SDS011;319;48.764;9.174;2022-11-20T13:59:26;1.30;;;1.30;;
673;SDS011;319;48.764;9.174;2022-11-20T14:02:00;1.30;;;1.30;;
673;SDS011;319;48.764;9.174;2022-11-20T14:04:28;1.30;;;1.30;;
673;SDS011;319;48.764;9.174;2022-11-20T14:06:58;1.40;;;1.40;;
673;SDS011;319;48.764;9.174;2022-11-20T14:09:27;1.20;;;1.20;;
673;SDS011;319;48.764;9.174;2022-11-20T14:11:55;1.30;;;1.30;;
673;SDS011;319;48.764;9.174;2022-11-20T14:14:23;1.30;;;1.30;;
673;SDS011;319;48.764;9.174;2022-11-20T14:16:51;1.30;;;1.30;;
673;SDS011;319;48.764;9.174;2022-11-20T14:19:26;1.30;;;1.30;;
673;SDS011;319;48.764;9.174;2022-11-20T14:22:06;1.30;;;1.30;;
673;SDS011;319;48.764;9.174;2022-11-20T14:24:36;1.30;;;1.30;;
673;SDS011;319;48.764;9.174;2022-11-20T14:27:03;1.30;;;1.30;;
673;SDS011;319;48.764;9.174;2022-11-20T14:29:33;1.30;;;1.30;;
673;SDS011;319;48.764;9.174;2022-11-20T14:32:01;1.40;;;1.40;;
673;SDS011;319;48.764;9.174;2022-11-20T14:34:30;1.30;;;1.30;;
673;SDS011;319;48.764;9.174;2022-11-20T14:36:59;1.30;;;1.30;;
673;SDS011;319;48.764;9.174;2022-11-20T14:39:29;1.40;;;1.40;;
673;SDS011;319;48.764;9.174;2022-11-20T14:42:00;1.30;;;1.30;;
673;SDS011;319;48.764;9.174;2022-11-20T14:44:27;1.30;;;1.30;;
673;SDS011;319;48.764;9.174;2022-11-20T14:46:57;1.10;;;1.10;;
673;SDS011;319;48.764;9.174;2022-11-20T14:49:25;1.37;;;1.37;;
673;SDS011;319;48.764;9.174;2022-11-20T14:51:58;1.30;;;1.30;;
673;SDS011;319;48.764;9.174;2022-11-20T14:54:26;1.30;;;1.30;;
673;SDS011;319;48.764;9.174;2022-11-20T14:56:55;1.40;;;1.40;;
673;SDS011;319;48.764;9.174;2022-11-20T14:59:24;1.30;;;1.30;;
673;SDS011;319;48.764;9.174;2022-11-20T15:01:55;1.47;;;1.47;;
673;SDS011;319;48.764;9.174;2022-11-20T15:04:23;1.20;;;1.20;;
673;SDS011;319;48.764;9.174;2022-11-20T15:06:51;1.30;;;1.30;;
673;SDS011;319;48.764;9.174;2022-11-20T15:09:19;1.20;;;1.20;;
673;SDS011;319;48.764;9.174;2022-11-20T15:11:52;1.40;;;1.40;;
673;SDS011;319;48.764;9.174;2022-11-20T15:14:21;1.30;;;1.30;;
673;SDS011;319;48.764;9.174;2022-11-20T15:16:50;1.40;;;1.40;;
673;SDS011;319;48.764;9.174;2022-11-20T15:19:19;1.30;;;1.30;;
673;SDS011;319;48.764;9.174;2022-11-20T15:21:47;1.40;;;1.40;;
673;SDS011;319;48.764;9.174;2022-11-20T15:24:14;1.40;;;1.40;;
673;SDS011;319;48.764;9.174;2022-11-20T15:26:41;1.40;;;1.40;;
673;SDS011;319;48.764;9.174;2022-11-20T15:29:09;1.30;;;1.30;;
673;SDS011;319;48.764;9.174;2022-11-20T15:31:38;1.20;;;1.20;;
673;SDS011;319;48.764;9.174;2022-11-20T15:34:09;1.30;;;1.30;;
673;SDS011;319;48.764;9.174;2022-11-20T15:36:38;1.20;;;1.20;;
673;SDS011;319;48.764;9.174;2022-11-20T15:39:05;1.30;;;1.30;;
673;SDS011;319;48.764;9.174;2022-11-20T15:41:33;1.40;;;1.40;;
673;SDS011;319;48.764;9.174;2022-11-20T15:44:00;1.30;;;1.30;;
673;SDS011;319;48.764;9.174;2022-11-20T15:46:27;1.30;;;1.30;;
673;SDS011;319;48.764;9.174;2022-11-20T15:48:57;1.40;;;1.40;;
673;SDS011;319;48.764;9.174;2022-11-20T15:51:26;1.30;;;1.30;;
673;SDS011;319;48.764;9.174;2022-11-20T15:53:55;1.20;;;1.20;;
673;SDS011;319;48.764;9.174;2022-11-20T15:56:22;1.40;;;1.40;;
673;SDS011;319;48.764;9.174;2022-11-20T15:58:49;1.30;;;1.30;;
673;SDS011;319;48.764;9.174;2022-11-20T16:01:16;1.30;;;1.30;;
673;SDS011;319;48.764;9.174;2022-11-20T16:03:44;1.30;;;1.30;;
673;SDS011;319;48.764;9.174;2022-11-20T16:06:13;1.30;;;1.30;;
673;SDS011;319;48.764;9.174;2022-11-20T16:08:41;1.30;;;1.30;;
673;SDS011;319;48.764;9.174;2022-11-20T16:11:09;1.30;;;1.30;;
673;SDS011;319;48.764;9.174;2022-11-20T16:13:36;1.50;;;1.50;;
673;SDS011;319;48.764;9.174;2022-11-20T16:16:33;1.50;;;1.50;;
673;SDS011;319;48.764;9.174;2022-11-20T16:19:01;1.40;;;1.40;;
673;SDS011;319;48.764;9.174;2022-11-20T16:21:29;1.37;;;1.37;;
673;SDS011;319;48.764;9.174;2022-11-20T16:23:57;1.30;;;1.30;;